sensor_id;sensor_type;location;lat;lon;timestamp;P1;durP1;ratioP1;P2;durP2;ratioP2
9948;SDS011;5013;51.840;8.276;2023-07-24T00:01:02;3.30;;;2.90;;
9948;SDS011;5013;51.840;8.276;2023-07-24T00:03:28;3.27;;;3.07;;
9948;SDS011;5013;51.840;8.276;2023-07-24T00:05:57;3.37;;;3.17;;
9948;SDS011;5013;51.840;8.276;2023-07-24T00:08:23;3.17;;;2.97;;
9948;SDS011;5013;51.840;8.276;2023-07-24T00:10:49;4.23;;;2.73;;
9948;SDS011;5013;51.840;8.276;2023-07-24T00:13:14;3.23;;;3.03;;
9948;SDS011;5013;51.840;8.276;2023-07-24T00:15:40;2.80;;;2.70;;
9948;SDS011;5013;51.840;8.276;2023-07-24T00:18:05;2.67;;;2.47;;
9948;SDS011;5013;51.840;8.276;2023-07-24T00:20:31;3.57;;;3.37;;
9948;SDS011;5013;51.840;8.276;2023-07-24T00:22:57;3.20;;;2.90;;
9948;SDS011;5013;51.840;8.276;2023-07-24T00:25:22;6.97;;;3.73;;
9948;SDS011;5013;51.840;8.276;2023-07-24T00:27:48;3.33;;;3.13;;
9948;SDS011;5013;51.840;8.276;2023-07-24T00:30:13;3.30;;;3.10;;
9948;SDS011;5013;51.840;8.276;2023-07-24T00:32:39;3.30;;;3.10;;
9948;SDS011;5013;51.840;8.276;2023-07-24T00:35:04;3.77;;;2.67;;
9948;SDS011;5013;51.840;8.276;2023-07-24T00:37:30;4.00;;;3.60;;
9948;SDS011;5013;51.840;8.276;2023-07-24T00:39:56;3.60;;;3.40;;
9948;SDS011;5013;51.840;8.276;2023-07-24T00:42:21;3.77;;;3.53;;
9948;SDS011;5013;51.840;8.276;2023-07-24T00:44:47;3.83;;;3.60;;
9948;SDS011;5013;51.840;8.276;2023-07-24T00:47:13;3.30;;;3.10;;
9948;SDS011;5013;51.840;8.276;2023-07-24T00:49:39;4.33;;;4.03;;
9948;SDS011;5013;51.840;8.276;2023-07-24T00:52:05;3.53;;;3.33;;
9948;SDS011;5013;51.840;8.276;2023-07-24T00:54:31;3.50;;;3.30;;
9948;SDS011;5013;51.840;8.276;2023-07-24T00:56:58;4.40;;;3.80;;
9948;SDS011;5013;51.840;8.276;2023-07-24T00:59:25;3.47;;;3.17;;
9948;SDS011;5013;51.840;8.276;2023-07-24T01:01:51;4.03;;;3.43;;
9948;SDS011;5013;51.840;8.276;2023-07-24T01:04:16;4.60;;;3.30;;
9948;SDS011;5013;51.840;8.276;2023-07-24T01:06:43;3.13;;;2.90;;
9948;SDS011;5013;51.840;8.276;2023-07-24T01:09:09;3.53;;;3.27;;
9948;SDS011;5013;51.840;8.276;2023-07-24T01:14:12;4.97;;;3.30;;
9948;SDS011;5013;51.840;8.276;2023-07-24T01:16:50;3.60;;;3.23;;
9948;SDS011;5013;51.840;8.276;2023-07-24T01:22:10;4.17;;;3.47;;
9948;SDS011;5013;51.840;8.276;2023-07-24T01:27:25;11.13;;;3.53;;
9948;SDS011;5013;51.840;8.276;2023-07-24T01:29:50;5.03;;;3.30;;
9948;SDS011;5013;51.840;8.276;2023-07-24T01:32:16;3.10;;;2.83;;
9948;SDS011;5013;51.840;8.276;2023-07-24T01:34:43;5.17;;;3.80;;
9948;SDS011;5013;51.840;8.276;2023-07-24T01:37:09;3.70;;;3.40;;
9948;SDS011;5013;51.840;8.276;2023-07-24T01:39:36;4.00;;;3.80;;
9948;SDS011;5013;51.840;8.276;2023-07-24T01:42:02;3.70;;;3.40;;
9948;SDS011;5013;51.840;8.276;2023-07-24T01:44:27;4.23;;;3.70;;
9948;SDS011;5013;51.840;8.276;2023-07-24T01:46:53;5.47;;;3.90;;
9948;SDS011;5013;51.840;8.276;2023-07-24T01:49:19;8.03;;;4.27;;
9948;SDS011;5013;51.840;8.276;2023-07-24T01:51:44;3.57;;;3.30;;
9948;SDS011;5013;51.840;8.276;2023-07-24T01:54:10;3.87;;;3.57;;
9948;SDS011;5013;51.840;8.276;2023-07-24T01:56:35;5.07;;;3.30;;
9948;SDS011;5013;51.840;8.276;2023-07-24T01:59:02;4.10;;;3.60;;
9948;SDS011;5013;51.840;8.276;2023-07-24T02:01:28;6.50;;;3.63;;
9948;SDS011;5013;51.840;8.276;2023-07-24T02:03:53;6.73;;;3.63;;
9948;SDS011;5013;51.840;8.276;2023-07-24T02:06:19;5.57;;;3.80;;
9948;SDS011;5013;51.840;8.276;2023-07-24T02:08:44;4.63;;;3.80;;
9948;SDS011;5013;51.840;8.276;2023-07-24T02:11:14;5.83;;;4.00;;
9948;SDS011;5013;51.840;8.276;2023-07-24T02:13:41;6.80;;;4.00;;
9948;SDS011;5013;51.840;8.276;2023-07-24T02:16:08;5.90;;;3.60;;
9948;SDS011;5013;51.840;8.276;2023-07-24T02:18:33;4.27;;;3.53;;
9948;SDS011;5013;51.840;8.276;2023-07-24T02:20:59;4.20;;;3.80;;
9948;SDS011;5013;51.840;8.276;2023-07-24T02:23:25;4.30;;;3.90;;
9948;SDS011;5013;51.840;8.276;2023-07-24T02:25:50;6.33;;;3.60;;
9948;SDS011;5013;51.840;8.276;2023-07-24T02:28:17;4.07;;;3.77;;
9948;SDS011;5013;51.840;8.276;2023-07-24T02:30:43;4.90;;;3.70;;
9948;SDS011;5013;51.840;8.276;2023-07-24T02:33:08;5.40;;;4.37;;
9948;SDS011;5013;51.840;8.276;2023-07-24T02:35:40;6.07;;;4.03;;
9948;SDS011;5013;51.840;8.276;2023-07-24T02:38:07;7.63;;;3.80;;
9948;SDS011;5013;51.840;8.276;2023-07-24T02:40:33;3.50;;;3.30;;
9948;SDS011;5013;51.840;8.276;2023-07-24T02:43:00;3.93;;;3.50;;
9948;SDS011;5013;51.840;8.276;2023-07-24T02:45:25;4.17;;;3.10;;
9948;SDS011;5013;51.840;8.276;2023-07-24T02:47:51;6.27;;;3.70;;
9948;SDS011;5013;51.840;8.276;2023-07-24T02:50:16;6.27;;;4.40;;
9948;SDS011;5013;51.840;8.276;2023-07-24T02:52:42;4.67;;;3.97;;
9948;SDS011;5013;51.840;8.276;2023-07-24T02:55:07;3.60;;;3.40;;
9948;SDS011;5013;51.840;8.276;2023-07-24T02:57:33;3.83;;;3.53;;
9948;SDS011;5013;51.840;8.276;2023-07-24T02:59:59;3.83;;;3.57;;
9948;SDS011;5013;51.840;8.276;2023-07-24T03:02:24;5.20;;;3.80;;
9948;SDS011;5013;51.840;8.276;2023-07-24T03:04:50;3.83;;;3.37;;
9948;SDS011;5013;51.840;8.276;2023-07-24T03:07:15;4.30;;;3.90;;
9948;SDS011;5013;51.840;8.276;2023-07-24T03:09:41;4.43;;;3.77;;
9948;SDS011;5013;51.840;8.276;2023-07-24T03:12:07;11.30;;;4.20;;
9948;SDS011;5013;51.840;8.276;2023-07-24T03:14:33;3.67;;;3.37;;
9948;SDS011;5013;51.840;8.276;2023-07-24T03:16:58;7.17;;;3.90;;
9948;SDS011;5013;51.840;8.276;2023-07-24T03:19:24;5.03;;;3.60;;
9948;SDS011;5013;51.840;8.276;2023-07-24T03:21:49;4.50;;;3.80;;
9948;SDS011;5013;51.840;8.276;2023-07-24T03:24:15;3.43;;;3.13;;
9948;SDS011;5013;51.840;8.276;2023-07-24T03:26:41;6.30;;;3.30;;
9948;SDS011;5013;51.840;8.276;2023-07-24T03:29:07;3.93;;;3.63;;
9948;SDS011;5013;51.840;8.276;2023-07-24T03:31:32;3.27;;;3.03;;
9948;SDS011;5013;51.840;8.276;2023-07-24T03:33:58;5.00;;;3.63;;
9948;SDS011;5013;51.840;8.276;2023-07-24T03:36:23;4.93;;;3.63;;
9948;SDS011;5013;51.840;8.276;2023-07-24T03:38:49;3.73;;;3.43;;
9948;SDS011;5013;51.840;8.276;2023-07-24T03:41:14;6.43;;;4.23;;
9948;SDS011;5013;51.840;8.276;2023-07-24T03:43:40;4.37;;;3.70;;
9948;SDS011;5013;51.840;8.276;2023-07-24T03:46:05;6.57;;;3.83;;
9948;SDS011;5013;51.840;8.276;2023-07-24T03:48:31;8.87;;;4.40;;
9948;SDS011;5013;51.840;8.276;2023-07-24T03:51:00;6.53;;;4.27;;
9948;SDS011;5013;51.840;8.276;2023-07-24T03:53:26;4.67;;;3.60;;
9948;SDS011;5013;51.840;8.276;2023-07-24T03:55:52;4.73;;;3.97;;
9948;SDS011;5013;51.840;8.276;2023-07-24T03:58:18;5.43;;;3.50;;
9948;SDS011;5013;51.840;8.276;2023-07-24T04:00:44;6.83;;;4.00;;
9948;SDS011;5013;51.840;8.276;2023-07-24T04:03:09;5.53;;;3.63;;
9948;SDS011;5013;51.840;8.276;2023-07-24T04:05:35;5.73;;;3.77;;
9948;SDS011;5013;51.840;8.276;2023-07-24T04:08:01;5.63;;;3.73;;
9948;SDS011;5013;51.840;8.276;2023-07-24T04:10:27;6.33;;;4.10;;
9948;SDS011;5013;51.840;8.276;2023-07-24T04:12:53;5.83;;;4.43;;
9948;SDS011;5013;51.840;8.276;2023-07-24T04:15:19;8.43;;;3.73;;
9948;SDS011;5013;51.840;8.276;2023-07-24T04:17:45;4.57;;;4.07;;
9948;SDS011;5013;51.840;8.276;2023-07-24T04:20:10;5.20;;;3.80;;
9948;SDS011;5013;51.840;8.276;2023-07-24T04:22:36;7.07;;;4.17;;
9948;SDS011;5013;51.840;8.276;2023-07-24T04:25:02;6.10;;;4.07;;
9948;SDS011;5013;51.840;8.276;2023-07-24T04:27:28;4.27;;;3.67;;
9948;SDS011;5013;51.840;8.276;2023-07-24T04:29:53;6.43;;;3.47;;
9948;SDS011;5013;51.840;8.276;2023-07-24T04:32:19;7.83;;;3.87;;
9948;SDS011;5013;51.840;8.276;2023-07-24T04:34:44;4.43;;;3.83;;
9948;SDS011;5013;51.840;8.276;2023-07-24T04:37:10;4.40;;;4.00;;
9948;SDS011;5013;51.840;8.276;2023-07-24T04:39:37;5.20;;;3.90;;
9948;SDS011;5013;51.840;8.276;2023-07-24T04:42:03;7.83;;;4.20;;
9948;SDS011;5013;51.840;8.276;2023-07-24T04:44:29;7.53;;;4.43;;
9948;SDS011;5013;51.840;8.276;2023-07-24T04:46:56;5.23;;;4.43;;
9948;SDS011;5013;51.840;8.276;2023-07-24T04:49:22;4.60;;;4.20;;
9948;SDS011;5013;51.840;8.276;2023-07-24T04:51:49;6.83;;;4.60;;
9948;SDS011;5013;51.840;8.276;2023-07-24T04:54:15;4.90;;;4.47;;
9948;SDS011;5013;51.840;8.276;2023-07-24T04:56:40;7.63;;;4.20;;
9948;SDS011;5013;51.840;8.276;2023-07-24T04:59:06;4.93;;;4.40;;
9948;SDS011;5013;51.840;8.276;2023-07-24T05:01:31;7.13;;;4.20;;
9948;SDS011;5013;51.840;8.276;2023-07-24T05:03:57;6.00;;;4.80;;
9948;SDS011;5013;51.840;8.276;2023-07-24T05:06:23;4.87;;;4.40;;
9948;SDS011;5013;51.840;8.276;2023-07-24T05:08:48;7.33;;;4.50;;
9948;SDS011;5013;51.840;8.276;2023-07-24T05:11:14;7.77;;;4.13;;
9948;SDS011;5013;51.840;8.276;2023-07-24T05:13:39;6.93;;;4.40;;
9948;SDS011;5013;51.840;8.276;2023-07-24T05:16:05;6.77;;;4.27;;
9948;SDS011;5013;51.840;8.276;2023-07-24T05:18:30;6.63;;;4.40;;
9948;SDS011;5013;51.840;8.276;2023-07-24T05:20:56;4.83;;;4.30;;
9948;SDS011;5013;51.840;8.276;2023-07-24T05:23:22;4.50;;;4.10;;
9948;SDS011;5013;51.840;8.276;2023-07-24T05:25:47;6.43;;;4.27;;
9948;SDS011;5013;51.840;8.276;2023-07-24T05:28:20;4.93;;;4.43;;
9948;SDS011;5013;51.840;8.276;2023-07-24T05:30:46;6.00;;;4.10;;
9948;SDS011;5013;51.840;8.276;2023-07-24T05:33:11;6.33;;;4.40;;
9948;SDS011;5013;51.840;8.276;2023-07-24T05:35:37;4.77;;;4.43;;
9948;SDS011;5013;51.840;8.276;2023-07-24T05:38:02;10.93;;;4.67;;
9948;SDS011;5013;51.840;8.276;2023-07-24T05:40:28;5.60;;;5.03;;
9948;SDS011;5013;51.840;8.276;2023-07-24T05:42:54;10.77;;;5.03;;
9948;SDS011;5013;51.840;8.276;2023-07-24T05:45:19;6.30;;;4.87;;
9948;SDS011;5013;51.840;8.276;2023-07-24T05:47:45;7.40;;;4.97;;
9948;SDS011;5013;51.840;8.276;2023-07-24T05:50:10;8.70;;;5.13;;
9948;SDS011;5013;51.840;8.276;2023-07-24T05:52:38;13.33;;;6.50;;
9948;SDS011;5013;51.840;8.276;2023-07-24T05:55:04;12.87;;;5.57;;
9948;SDS011;5013;51.840;8.276;2023-07-24T05:57:30;8.47;;;6.03;;
9948;SDS011;5013;51.840;8.276;2023-07-24T05:59:55;8.47;;;5.50;;
9948;SDS011;5013;51.840;8.276;2023-07-24T06:02:21;8.90;;;6.30;;
9948;SDS011;5013;51.840;8.276;2023-07-24T06:04:47;8.77;;;5.97;;
9948;SDS011;5013;51.840;8.276;2023-07-24T06:07:12;12.47;;;6.63;;
9948;SDS011;5013;51.840;8.276;2023-07-24T06:09:38;7.83;;;6.30;;
9948;SDS011;5013;51.840;8.276;2023-07-24T06:12:03;12.27;;;6.27;;
9948;SDS011;5013;51.840;8.276;2023-07-24T06:14:29;8.93;;;5.90;;
9948;SDS011;5013;51.840;8.276;2023-07-24T06:16:55;7.50;;;5.23;;
9948;SDS011;5013;51.840;8.276;2023-07-24T06:19:20;5.67;;;5.17;;
9948;SDS011;5013;51.840;8.276;2023-07-24T06:21:46;7.63;;;6.00;;
9948;SDS011;5013;51.840;8.276;2023-07-24T06:24:12;7.37;;;6.67;;
9948;SDS011;5013;51.840;8.276;2023-07-24T06:26:38;9.90;;;6.23;;
9948;SDS011;5013;51.840;8.276;2023-07-24T06:29:04;11.60;;;6.07;;
9948;SDS011;5013;51.840;8.276;2023-07-24T06:31:30;7.90;;;6.17;;
9948;SDS011;5013;51.840;8.276;2023-07-24T06:33:56;8.57;;;6.13;;
9948;SDS011;5013;51.840;8.276;2023-07-24T06:36:21;7.73;;;6.50;;
9948;SDS011;5013;51.840;8.276;2023-07-24T06:38:47;8.53;;;5.80;;
9948;SDS011;5013;51.840;8.276;2023-07-24T06:41:13;10.77;;;7.37;;
9948;SDS011;5013;51.840;8.276;2023-07-24T06:43:40;10.50;;;7.37;;
9948;SDS011;5013;51.840;8.276;2023-07-24T06:46:06;9.50;;;6.40;;
9948;SDS011;5013;51.840;8.276;2023-07-24T06:48:32;7.57;;;6.07;;
9948;SDS011;5013;51.840;8.276;2023-07-24T06:50:57;8.53;;;6.07;;
9948;SDS011;5013;51.840;8.276;2023-07-24T06:53:23;11.97;;;6.43;;
9948;SDS011;5013;51.840;8.276;2023-07-24T06:55:49;7.83;;;6.40;;
9948;SDS011;5013;51.840;8.276;2023-07-24T06:58:14;9.80;;;6.77;;
9948;SDS011;5013;51.840;8.276;2023-07-24T07:00:40;6.77;;;6.20;;
9948;SDS011;5013;51.840;8.276;2023-07-24T07:03:05;8.60;;;6.07;;
9948;SDS011;5013;51.840;8.276;2023-07-24T07:05:32;6.13;;;5.63;;
9948;SDS011;5013;51.840;8.276;2023-07-24T07:07:57;7.10;;;6.37;;
9948;SDS011;5013;51.840;8.276;2023-07-24T07:10:23;8.60;;;6.40;;
9948;SDS011;5013;51.840;8.276;2023-07-24T07:12:49;8.83;;;6.37;;
9948;SDS011;5013;51.840;8.276;2023-07-24T07:15:15;8.80;;;5.97;;
9948;SDS011;5013;51.840;8.276;2023-07-24T07:17:40;8.97;;;6.77;;
9948;SDS011;5013;51.840;8.276;2023-07-24T07:20:06;12.60;;;7.30;;
9948;SDS011;5013;51.840;8.276;2023-07-24T07:22:32;6.80;;;5.87;;
9948;SDS011;5013;51.840;8.276;2023-07-24T07:24:58;6.93;;;6.20;;
9948;SDS011;5013;51.840;8.276;2023-07-24T07:27:23;9.00;;;6.63;;
9948;SDS011;5013;51.840;8.276;2023-07-24T07:29:49;8.83;;;5.73;;
9948;SDS011;5013;51.840;8.276;2023-07-24T07:32:14;9.97;;;6.83;;
9948;SDS011;5013;51.840;8.276;2023-07-24T07:34:40;5.97;;;5.47;;
9948;SDS011;5013;51.840;8.276;2023-07-24T07:37:05;6.33;;;5.63;;
9948;SDS011;5013;51.840;8.276;2023-07-24T07:39:31;7.83;;;6.20;;
9948;SDS011;5013;51.840;8.276;2023-07-24T07:41:57;6.90;;;5.87;;
9948;SDS011;5013;51.840;8.276;2023-07-24T07:44:23;5.13;;;4.63;;
9948;SDS011;5013;51.840;8.276;2023-07-24T07:46:48;5.20;;;4.90;;
9948;SDS011;5013;51.840;8.276;2023-07-24T07:49:14;5.77;;;5.20;;
9948;SDS011;5013;51.840;8.276;2023-07-24T07:51:40;5.30;;;4.80;;
9948;SDS011;5013;51.840;8.276;2023-07-24T07:54:05;4.83;;;4.53;;
9948;SDS011;5013;51.840;8.276;2023-07-24T07:56:31;6.60;;;5.60;;
9948;SDS011;5013;51.840;8.276;2023-07-24T07:58:56;6.27;;;5.73;;
9948;SDS011;5013;51.840;8.276;2023-07-24T08:01:22;6.10;;;5.60;;
9948;SDS011;5013;51.840;8.276;2023-07-24T08:03:47;6.30;;;5.73;;
9948;SDS011;5013;51.840;8.276;2023-07-24T08:06:13;6.90;;;5.63;;
9948;SDS011;5013;51.840;8.276;2023-07-24T08:08:38;10.30;;;5.87;;
9948;SDS011;5013;51.840;8.276;2023-07-24T08:11:07;6.50;;;6.00;;
9948;SDS011;5013;51.840;8.276;2023-07-24T08:13:36;6.67;;;6.07;;
9948;SDS011;5013;51.840;8.276;2023-07-24T08:16:01;7.03;;;6.33;;
9948;SDS011;5013;51.840;8.276;2023-07-24T08:18:28;6.30;;;5.80;;
9948;SDS011;5013;51.840;8.276;2023-07-24T08:20:57;6.37;;;5.57;;
9948;SDS011;5013;51.840;8.276;2023-07-24T08:23:22;7.23;;;5.80;;
9948;SDS011;5013;51.840;8.276;2023-07-24T08:25:52;7.57;;;5.80;;
9948;SDS011;5013;51.840;8.276;2023-07-24T08:28:18;6.43;;;5.87;;
9948;SDS011;5013;51.840;8.276;2023-07-24T08:30:44;6.50;;;5.70;;
9948;SDS011;5013;51.840;8.276;2023-07-24T08:33:09;6.37;;;5.87;;
9948;SDS011;5013;51.840;8.276;2023-07-24T08:35:35;5.97;;;5.57;;
9948;SDS011;5013;51.840;8.276;2023-07-24T08:38:00;8.70;;;5.70;;
9948;SDS011;5013;51.840;8.276;2023-07-24T08:40:26;7.10;;;6.40;;
9948;SDS011;5013;51.840;8.276;2023-07-24T08:42:51;7.93;;;6.20;;
9948;SDS011;5013;51.840;8.276;2023-07-24T08:45:18;6.83;;;5.97;;
9948;SDS011;5013;51.840;8.276;2023-07-24T08:47:45;6.67;;;5.93;;
9948;SDS011;5013;51.840;8.276;2023-07-24T08:50:12;6.30;;;5.70;;
9948;SDS011;5013;51.840;8.276;2023-07-24T08:52:39;5.90;;;5.37;;
9948;SDS011;5013;51.840;8.276;2023-07-24T08:55:07;8.73;;;5.87;;
9948;SDS011;5013;51.840;8.276;2023-07-24T08:57:33;6.17;;;5.67;;
9948;SDS011;5013;51.840;8.276;2023-07-24T08:59:59;6.47;;;5.97;;
9948;SDS011;5013;51.840;8.276;2023-07-24T09:02:29;7.53;;;6.00;;
9948;SDS011;5013;51.840;8.276;2023-07-24T09:04:56;6.87;;;5.53;;
9948;SDS011;5013;51.840;8.276;2023-07-24T09:07:21;7.80;;;6.90;;
9948;SDS011;5013;51.840;8.276;2023-07-24T09:09:47;7.40;;;6.67;;
9948;SDS011;5013;51.840;8.276;2023-07-24T09:12:15;6.30;;;5.80;;
9948;SDS011;5013;51.840;8.276;2023-07-24T09:14:41;6.73;;;6.07;;
9948;SDS011;5013;51.840;8.276;2023-07-24T09:17:07;6.60;;;6.03;;
9948;SDS011;5013;51.840;8.276;2023-07-24T09:19:34;6.13;;;5.63;;
9948;SDS011;5013;51.840;8.276;2023-07-24T09:22:10;14.17;;;5.80;;
9948;SDS011;5013;51.840;8.276;2023-07-24T09:24:53;5.43;;;5.03;;
9948;SDS011;5013;51.840;8.276;2023-07-24T09:27:20;5.80;;;5.13;;
9948;SDS011;5013;51.840;8.276;2023-07-24T09:29:49;4.83;;;4.50;;
9948;SDS011;5013;51.840;8.276;2023-07-24T09:32:19;6.00;;;4.87;;
9948;SDS011;5013;51.840;8.276;2023-07-24T09:34:48;4.43;;;4.13;;
9948;SDS011;5013;51.840;8.276;2023-07-24T09:37:33;4.63;;;4.23;;
9948;SDS011;5013;51.840;8.276;2023-07-24T09:39:59;5.23;;;4.73;;
9948;SDS011;5013;51.840;8.276;2023-07-24T09:42:31;7.43;;;5.13;;
9948;SDS011;5013;51.840;8.276;2023-07-24T09:44:59;4.97;;;4.57;;
9948;SDS011;5013;51.840;8.276;2023-07-24T09:47:28;5.37;;;4.90;;
9948;SDS011;5013;51.840;8.276;2023-07-24T09:49:54;5.20;;;4.70;;
9948;SDS011;5013;51.840;8.276;2023-07-24T09:52:20;6.33;;;4.70;;
9948;SDS011;5013;51.840;8.276;2023-07-24T09:55:10;4.83;;;4.43;;
9948;SDS011;5013;51.840;8.276;2023-07-24T09:57:36;5.00;;;4.63;;
9948;SDS011;5013;51.840;8.276;2023-07-24T10:00:03;4.90;;;4.10;;
9948;SDS011;5013;51.840;8.276;2023-07-24T10:02:29;5.23;;;4.83;;
9948;SDS011;5013;51.840;8.276;2023-07-24T10:04:55;5.70;;;5.20;;
9948;SDS011;5013;51.840;8.276;2023-07-24T10:07:21;5.90;;;5.37;;
9948;SDS011;5013;51.840;8.276;2023-07-24T10:09:48;6.23;;;5.73;;
9948;SDS011;5013;51.840;8.276;2023-07-24T10:12:17;6.20;;;5.80;;
9948;SDS011;5013;51.840;8.276;2023-07-24T10:14:45;6.77;;;6.17;;
9948;SDS011;5013;51.840;8.276;2023-07-24T10:17:11;6.40;;;5.77;;
9948;SDS011;5013;51.840;8.276;2023-07-24T10:19:40;7.10;;;6.43;;
9948;SDS011;5013;51.840;8.276;2023-07-24T10:22:20;8.80;;;7.17;;
9948;SDS011;5013;51.840;8.276;2023-07-24T10:24:46;9.83;;;7.93;;
9948;SDS011;5013;51.840;8.276;2023-07-24T10:27:12;9.70;;;7.90;;
9948;SDS011;5013;51.840;8.276;2023-07-24T10:29:38;7.57;;;7.07;;
9948;SDS011;5013;51.840;8.276;2023-07-24T10:32:04;12.73;;;8.17;;
9948;SDS011;5013;51.840;8.276;2023-07-24T10:34:43;8.00;;;7.30;;
9948;SDS011;5013;51.840;8.276;2023-07-24T10:37:08;8.50;;;6.90;;
9948;SDS011;5013;51.840;8.276;2023-07-24T10:39:37;7.43;;;6.73;;
9948;SDS011;5013;51.840;8.276;2023-07-24T10:42:09;6.33;;;5.83;;
9948;SDS011;5013;51.840;8.276;2023-07-24T10:44:36;5.80;;;5.27;;
9948;SDS011;5013;51.840;8.276;2023-07-24T10:47:02;6.80;;;6.07;;
9948;SDS011;5013;51.840;8.276;2023-07-24T10:49:28;7.10;;;6.60;;
9948;SDS011;5013;51.840;8.276;2023-07-24T10:51:57;7.27;;;6.57;;
9948;SDS011;5013;51.840;8.276;2023-07-24T10:54:23;7.33;;;6.60;;
9948;SDS011;5013;51.840;8.276;2023-07-24T10:56:49;8.13;;;7.23;;
9948;SDS011;5013;51.840;8.276;2023-07-24T10:59:15;7.53;;;6.83;;
9948;SDS011;5013;51.840;8.276;2023-07-24T11:01:40;6.53;;;6.13;;
9948;SDS011;5013;51.840;8.276;2023-07-24T11:04:07;7.50;;;6.80;;
9948;SDS011;5013;51.840;8.276;2023-07-24T11:06:33;6.63;;;6.00;;
9948;SDS011;5013;51.840;8.276;2023-07-24T11:08:59;6.10;;;5.70;;
9948;SDS011;5013;51.840;8.276;2023-07-24T11:11:31;5.57;;;5.27;;
9948;SDS011;5013;51.840;8.276;2023-07-24T11:13:58;5.63;;;5.23;;
9948;SDS011;5013;51.840;8.276;2023-07-24T11:16:26;6.10;;;5.60;;
9948;SDS011;5013;51.840;8.276;2023-07-24T11:18:52;6.83;;;5.67;;
9948;SDS011;5013;51.840;8.276;2023-07-24T11:21:18;7.27;;;6.00;;
9948;SDS011;5013;51.840;8.276;2023-07-24T11:23:48;5.50;;;5.00;;
9948;SDS011;5013;51.840;8.276;2023-07-24T11:26:18;5.28;;;4.88;;
9948;SDS011;5013;51.840;8.276;2023-07-24T11:28:45;5.03;;;4.72;;
9948;SDS011;5013;51.840;8.276;2023-07-24T11:31:10;4.72;;;4.32;;
9948;SDS011;5013;51.840;8.276;2023-07-24T11:33:36;4.72;;;4.30;;
9948;SDS011;5013;51.840;8.276;2023-07-24T11:36:03;3.90;;;3.70;;
9948;SDS011;5013;51.840;8.276;2023-07-24T11:38:29;3.90;;;3.70;;
9948;SDS011;5013;51.840;8.276;2023-07-24T11:40:54;4.53;;;3.85;;
9948;SDS011;5013;51.840;8.276;2023-07-24T11:43:22;3.85;;;3.55;;
9948;SDS011;5013;51.840;8.276;2023-07-24T11:45:49;4.00;;;3.70;;
9948;SDS011;5013;51.840;8.276;2023-07-24T11:48:20;3.80;;;3.55;;
9948;SDS011;5013;51.840;8.276;2023-07-24T11:50:49;5.17;;;3.77;;
9948;SDS011;5013;51.840;8.276;2023-07-24T11:53:24;3.78;;;3.47;;
9948;SDS011;5013;51.840;8.276;2023-07-24T11:55:53;4.47;;;3.90;;
9948;SDS011;5013;51.840;8.276;2023-07-24T11:58:20;4.53;;;3.50;;
9948;SDS011;5013;51.840;8.276;2023-07-24T12:00:46;3.72;;;3.53;;
9948;SDS011;5013;51.840;8.276;2023-07-24T12:03:13;5.70;;;5.15;;
9948;SDS011;5013;51.840;8.276;2023-07-24T12:05:43;5.38;;;4.93;;
9948;SDS011;5013;51.840;8.276;2023-07-24T12:08:09;4.70;;;4.38;;
9948;SDS011;5013;51.840;8.276;2023-07-24T12:10:39;4.75;;;4.35;;
9948;SDS011;5013;51.840;8.276;2023-07-24T12:13:05;5.25;;;4.80;;
9948;SDS011;5013;51.840;8.276;2023-07-24T12:15:32;5.43;;;4.85;;
9948;SDS011;5013;51.840;8.276;2023-07-24T12:18:02;5.60;;;5.07;;
9948;SDS011;5013;51.840;8.276;2023-07-24T12:20:28;5.18;;;4.55;;
9948;SDS011;5013;51.840;8.276;2023-07-24T12:22:54;5.37;;;4.70;;
9948;SDS011;5013;51.840;8.276;2023-07-24T12:25:20;4.70;;;4.40;;
9948;SDS011;5013;51.840;8.276;2023-07-24T12:27:46;5.33;;;4.93;;
9948;SDS011;5013;51.840;8.276;2023-07-24T12:30:12;10.40;;;5.30;;
9948;SDS011;5013;51.840;8.276;2023-07-24T12:32:38;7.33;;;5.70;;
9948;SDS011;5013;51.840;8.276;2023-07-24T12:35:04;9.80;;;7.37;;
9948;SDS011;5013;51.840;8.276;2023-07-24T12:37:30;10.57;;;7.80;;
9948;SDS011;5013;51.840;8.276;2023-07-24T12:39:56;10.53;;;8.63;;
9948;SDS011;5013;51.840;8.276;2023-07-24T12:42:21;8.63;;;7.67;;
9948;SDS011;5013;51.840;8.276;2023-07-24T12:44:48;7.53;;;6.80;;
9948;SDS011;5013;51.840;8.276;2023-07-24T12:47:14;7.80;;;7.10;;
9948;SDS011;5013;51.840;8.276;2023-07-24T12:49:39;7.80;;;7.10;;
9948;SDS011;5013;51.840;8.276;2023-07-24T12:52:05;12.20;;;8.80;;
9948;SDS011;5013;51.840;8.276;2023-07-24T12:54:32;10.23;;;9.33;;
9948;SDS011;5013;51.840;8.276;2023-07-24T12:56:58;13.23;;;9.83;;
9948;SDS011;5013;51.840;8.276;2023-07-24T12:59:23;10.00;;;9.20;;
9948;SDS011;5013;51.840;8.276;2023-07-24T13:01:49;11.13;;;10.07;;
9948;SDS011;5013;51.840;8.276;2023-07-24T13:04:14;10.90;;;10.00;;
9948;SDS011;5013;51.840;8.276;2023-07-24T13:06:40;10.43;;;9.53;;
9948;SDS011;5013;51.840;8.276;2023-07-24T13:09:06;7.50;;;6.90;;
9948;SDS011;5013;51.840;8.276;2023-07-24T13:11:32;6.30;;;5.80;;
9948;SDS011;5013;51.840;8.276;2023-07-24T13:13:58;5.73;;;5.20;;
9948;SDS011;5013;51.840;8.276;2023-07-24T13:16:23;4.60;;;4.30;;
9948;SDS011;5013;51.840;8.276;2023-07-24T13:18:49;4.57;;;4.17;;
9948;SDS011;5013;51.840;8.276;2023-07-24T13:21:15;4.37;;;4.00;;
9948;SDS011;5013;51.840;8.276;2023-07-24T13:23:40;4.87;;;4.50;;
9948;SDS011;5013;51.840;8.276;2023-07-24T13:26:06;4.93;;;4.53;;
9948;SDS011;5013;51.840;8.276;2023-07-24T13:28:36;6.40;;;4.37;;
9948;SDS011;5013;51.840;8.276;2023-07-24T13:31:20;6.37;;;4.20;;
9948;SDS011;5013;51.840;8.276;2023-07-24T13:33:47;3.87;;;3.50;;
9948;SDS011;5013;51.840;8.276;2023-07-24T13:36:13;4.20;;;3.00;;
9948;SDS011;5013;51.840;8.276;2023-07-24T13:38:39;3.03;;;2.83;;
9948;SDS011;5013;51.840;8.276;2023-07-24T13:41:05;2.83;;;2.60;;
9948;SDS011;5013;51.840;8.276;2023-07-24T13:43:31;3.40;;;2.60;;
9948;SDS011;5013;51.840;8.276;2023-07-24T13:45:57;3.13;;;2.93;;
9948;SDS011;5013;51.840;8.276;2023-07-24T13:48:23;3.20;;;2.93;;
9948;SDS011;5013;51.840;8.276;2023-07-24T13:50:50;4.27;;;3.20;;
9948;SDS011;5013;51.840;8.276;2023-07-24T13:53:16;5.63;;;2.50;;
9948;SDS011;5013;51.840;8.276;2023-07-24T13:55:41;3.20;;;2.90;;
9948;SDS011;5013;51.840;8.276;2023-07-24T13:58:07;3.13;;;2.40;;
9948;SDS011;5013;51.840;8.276;2023-07-24T14:00:33;3.30;;;3.00;;
9948;SDS011;5013;51.840;8.276;2023-07-24T14:02:58;3.50;;;2.40;;
9948;SDS011;5013;51.840;8.276;2023-07-24T14:05:24;2.97;;;2.60;;
9948;SDS011;5013;51.840;8.276;2023-07-24T14:07:49;5.40;;;2.90;;
9948;SDS011;5013;51.840;8.276;2023-07-24T14:10:15;3.30;;;3.03;;
9948;SDS011;5013;51.840;8.276;2023-07-24T14:12:40;4.13;;;3.20;;
9948;SDS011;5013;51.840;8.276;2023-07-24T14:15:06;3.00;;;1.90;;
9948;SDS011;5013;51.840;8.276;2023-07-24T14:17:32;2.53;;;1.87;;
9948;SDS011;5013;51.840;8.276;2023-07-24T14:19:57;2.83;;;2.20;;
9948;SDS011;5013;51.840;8.276;2023-07-24T14:22:23;1.63;;;1.60;;
9948;SDS011;5013;51.840;8.276;2023-07-24T14:24:48;2.17;;;1.80;;
9948;SDS011;5013;51.840;8.276;2023-07-24T14:27:14;1.43;;;1.43;;
9948;SDS011;5013;51.840;8.276;2023-07-24T14:29:40;2.33;;;1.40;;
9948;SDS011;5013;51.840;8.276;2023-07-24T14:32:05;1.87;;;1.40;;
9948;SDS011;5013;51.840;8.276;2023-07-24T14:34:32;1.13;;;1.13;;
9948;SDS011;5013;51.840;8.276;2023-07-24T14:36:57;1.50;;;1.40;;
9948;SDS011;5013;51.840;8.276;2023-07-24T14:39:23;1.47;;;1.37;;
9948;SDS011;5013;51.840;8.276;2023-07-24T14:41:49;4.17;;;1.63;;
9948;SDS011;5013;51.840;8.276;2023-07-24T14:44:14;2.00;;;1.20;;
9948;SDS011;5013;51.840;8.276;2023-07-24T14:46:40;1.70;;;1.67;;
9948;SDS011;5013;51.840;8.276;2023-07-24T14:49:05;1.80;;;1.70;;
9948;SDS011;5013;51.840;8.276;2023-07-24T14:51:31;1.87;;;1.83;;
9948;SDS011;5013;51.840;8.276;2023-07-24T14:53:56;3.27;;;1.57;;
9948;SDS011;5013;51.840;8.276;2023-07-24T14:56:22;1.67;;;1.60;;
9948;SDS011;5013;51.840;8.276;2023-07-24T14:58:47;1.43;;;1.43;;
9948;SDS011;5013;51.840;8.276;2023-07-24T15:01:13;1.80;;;1.80;;
9948;SDS011;5013;51.840;8.276;2023-07-24T15:03:38;2.13;;;2.03;;
9948;SDS011;5013;51.840;8.276;2023-07-24T15:06:04;2.33;;;1.80;;
9948;SDS011;5013;51.840;8.276;2023-07-24T15:08:32;1.87;;;1.87;;
9948;SDS011;5013;51.840;8.276;2023-07-24T15:10:58;5.43;;;2.43;;
9948;SDS011;5013;51.840;8.276;2023-07-24T15:13:23;2.43;;;2.33;;
9948;SDS011;5013;51.840;8.276;2023-07-24T15:15:49;2.60;;;2.50;;
9948;SDS011;5013;51.840;8.276;2023-07-24T15:18:14;2.50;;;2.40;;